createdAt,value
2023-03-17T00:01:44.594Z,8.23
2023-03-17T00:04:12.360Z,8.00
2023-03-17T00:06:40.287Z,8.43
2023-03-17T00:09:14.646Z,7.67
2023-03-17T00:11:42.198Z,7.80
2023-03-17T00:14:09.213Z,8.03
2023-03-17T00:16:42.929Z,8.30
2023-03-17T00:19:24.223Z,8.10
2023-03-17T00:21:50.928Z,8.27
2023-03-17T00:24:17.623Z,7.47
2023-03-17T00:26:44.694Z,8.60
2023-03-17T00:29:11.419Z,8.27
2023-03-17T00:31:39.460Z,8.47
2023-03-17T00:34:07.325Z,8.53
2023-03-17T00:36:34.441Z,7.70
2023-03-17T00:39:01.529Z,8.00
2023-03-17T00:41:29.453Z,7.80
2023-03-17T00:43:57.220Z,7.83
2023-03-17T00:46:35.475Z,7.97
2023-03-17T00:51:44.604Z,7.87
2023-03-17T00:54:12.331Z,7.50
2023-03-17T00:56:40.316Z,7.87
2023-03-17T00:59:19.233Z,7.90
2023-03-17T01:01:47.815Z,8.00
2023-03-17T01:04:15.712Z,7.80
2023-03-17T01:06:43.186Z,8.10
2023-03-17T01:09:16.118Z,8.13
2023-03-17T01:11:44.126Z,7.50
2023-03-17T01:14:12.592Z,7.30
2023-03-17T01:16:39.572Z,8.10
2023-03-17T01:19:06.918Z,7.80
2023-03-17T01:21:33.656Z,7.17
2023-03-17T01:24:00.425Z,7.43
2023-03-17T01:26:27.417Z,7.30
2023-03-17T01:28:54.734Z,7.37
2023-03-17T01:31:23.062Z,7.40
2023-03-17T01:33:49.904Z,7.27
2023-03-17T01:36:17.774Z,7.03
2023-03-17T01:38:45.495Z,7.23
2023-03-17T01:41:12.575Z,6.93
2023-03-17T01:43:39.264Z,7.90
2023-03-17T01:46:14.820Z,7.30
2023-03-17T01:48:48.895Z,7.40
2023-03-17T01:51:30.263Z,6.97
2023-03-17T01:53:58.529Z,6.50
2023-03-17T01:56:25.848Z,6.87
2023-03-17T01:58:54.674Z,7.37
2023-03-17T02:01:26.762Z,6.67
2023-03-17T02:03:55.178Z,7.13
2023-03-17T02:06:22.205Z,7.40
2023-03-17T02:08:48.827Z,7.00
2023-03-17T02:11:15.523Z,6.60
2023-03-17T02:13:44.621Z,6.60
2023-03-17T02:16:18.027Z,6.60
2023-03-17T02:18:45.022Z,6.63
2023-03-17T02:21:43.529Z,6.37
2023-03-17T02:24:20.690Z,6.30
2023-03-17T02:26:49.666Z,6.10
2023-03-17T02:29:16.759Z,6.20
2023-03-17T02:31:45.388Z,6.03
2023-03-17T02:34:12.102Z,5.90
2023-03-17T02:36:38.830Z,6.50
2023-03-17T02:39:05.891Z,6.67
2023-03-17T02:41:32.879Z,5.93
2023-03-17T02:43:59.780Z,6.30
2023-03-17T02:46:27.146Z,6.20
2023-03-17T02:48:55.495Z,6.47
2023-03-17T02:51:22.504Z,5.53
2023-03-17T02:53:49.422Z,5.97
2023-03-17T02:56:16.099Z,6.73
2023-03-17T02:58:42.808Z,5.97
2023-03-17T03:01:09.765Z,6.43
2023-03-17T03:03:37.113Z,5.57
2023-03-17T03:06:03.963Z,5.43
2023-03-17T03:08:30.947Z,5.50
2023-03-17T03:10:57.848Z,5.97
2023-03-17T03:13:24.558Z,6.30
2023-03-17T03:15:51.263Z,6.10
2023-03-17T03:18:18.008Z,6.03
2023-03-17T03:20:46.144Z,7.57
2023-03-17T03:23:13.892Z,5.20
2023-03-17T03:25:40.786Z,7.13
2023-03-17T03:28:08.568Z,6.30
2023-03-17T03:30:36.562Z,6.70
2023-03-17T03:33:03.545Z,5.50
2023-03-17T03:35:30.569Z,5.60
2023-03-17T03:37:57.785Z,5.57
2023-03-17T03:40:25.712Z,5.40
2023-03-17T03:42:52.356Z,6.27
2023-03-17T03:45:19.297Z,5.80
2023-03-17T03:47:46.038Z,5.93
2023-03-17T03:50:13.291Z,5.90
2023-03-17T03:52:40.782Z,5.90
2023-03-17T03:55:07.936Z,5.50
2023-03-17T03:57:35.230Z,5.93
2023-03-17T04:00:02.275Z,5.73
2023-03-17T04:02:29.786Z,5.47
2023-03-17T04:04:56.455Z,5.60
2023-03-17T04:07:23.412Z,6.23
2023-03-17T04:09:50.067Z,6.37
2023-03-17T04:12:17.703Z,6.00
2023-03-17T04:14:44.546Z,6.03
2023-03-17T04:17:11.984Z,6.40
2023-03-17T04:19:39.341Z,5.93
2023-03-17T04:22:07.471Z,5.80
2023-03-17T04:24:34.916Z,6.13
2023-03-17T04:27:03.706Z,5.27
2023-03-17T04:29:32.210Z,5.73
2023-03-17T04:31:58.965Z,6.13
2023-03-17T04:34:27.230Z,5.20
2023-03-17T04:36:54.081Z,5.17
2023-03-17T04:39:20.891Z,5.03
2023-03-17T04:41:47.624Z,5.43
2023-03-17T04:44:14.328Z,5.10
2023-03-17T04:46:41.956Z,5.23
2023-03-17T04:49:09.475Z,5.70
2023-03-17T04:51:36.874Z,5.10
2023-03-17T04:54:04.150Z,5.60
2023-03-17T04:56:31.982Z,5.20
2023-03-17T04:58:59.010Z,5.07
2023-03-17T05:01:26.449Z,5.30
2023-03-17T05:03:53.176Z,5.37
2023-03-17T05:06:19.830Z,5.17
2023-03-17T05:08:46.604Z,4.60
2023-03-17T05:11:14.310Z,5.00
2023-03-17T05:13:41.085Z,5.53
2023-03-17T05:16:09.296Z,5.63
2023-03-17T05:18:37.181Z,5.17
2023-03-17T05:21:05.481Z,4.50
2023-03-17T05:23:32.471Z,6.23
2023-03-17T05:25:59.334Z,5.33
2023-03-17T05:28:26.751Z,5.17
2023-03-17T05:30:53.910Z,5.63
2023-03-17T05:33:21.637Z,5.40
2023-03-17T05:35:48.424Z,5.33
2023-03-17T05:38:16.173Z,5.77
2023-03-17T05:40:43.404Z,5.27
2023-03-17T05:43:10.148Z,5.10
2023-03-17T05:45:37.138Z,6.03
2023-03-17T05:48:04.801Z,6.17
2023-03-17T05:50:32.449Z,6.00
2023-03-17T05:52:59.313Z,6.50
2023-03-17T05:55:26.204Z,6.87
2023-03-17T05:57:52.882Z,6.97
2023-03-17T06:00:21.432Z,6.70
2023-03-17T06:02:48.357Z,7.10
2023-03-17T06:05:15.153Z,7.07
2023-03-17T06:07:52.831Z,6.60
2023-03-17T06:10:20.111Z,7.80
2023-03-17T06:12:47.476Z,6.93
2023-03-17T06:15:14.133Z,8.20
2023-03-17T06:17:40.824Z,7.77
2023-03-17T06:20:08.166Z,7.57
2023-03-17T06:22:34.913Z,8.03
2023-03-17T06:25:01.850Z,8.87
2023-03-17T06:27:28.568Z,9.13
2023-03-17T06:29:55.243Z,9.70
2023-03-17T06:32:22.030Z,9.53
2023-03-17T06:34:48.762Z,9.77
2023-03-17T06:37:16.489Z,9.43
2023-03-17T06:39:43.783Z,9.63
2023-03-17T06:42:10.502Z,9.70
2023-03-17T06:44:37.851Z,9.20
2023-03-17T06:47:04.892Z,9.67
2023-03-17T06:49:32.126Z,9.80
2023-03-17T06:51:58.927Z,10.77
2023-03-17T06:54:25.922Z,9.80
2023-03-17T06:56:53.281Z,10.23
2023-03-17T06:59:21.101Z,9.70
2023-03-17T07:01:49.295Z,9.87
2023-03-17T07:04:16.581Z,9.10
2023-03-17T07:06:43.234Z,10.50
2023-03-17T07:09:10.109Z,11.00
2023-03-17T07:11:36.955Z,10.50
2023-03-17T07:14:03.659Z,11.47
2023-03-17T07:16:30.822Z,11.80
2023-03-17T07:18:58.389Z,11.50
2023-03-17T07:21:25.306Z,11.73
2023-03-17T07:23:52.409Z,11.37
2023-03-17T07:26:19.181Z,11.30
2023-03-17T07:28:46.645Z,11.40
2023-03-17T07:31:14.451Z,10.60
2023-03-17T07:33:42.079Z,11.23
2023-03-17T07:36:09.129Z,11.40
2023-03-17T07:38:36.203Z,11.70
2023-03-17T07:41:04.596Z,11.60
2023-03-17T07:43:31.878Z,11.57
2023-03-17T07:45:58.950Z,11.60
2023-03-17T07:48:25.650Z,11.60
2023-03-17T07:50:52.388Z,11.37
2023-03-17T07:53:19.202Z,11.87
2023-03-17T07:55:46.016Z,11.63
2023-03-17T07:58:15.585Z,11.43
2023-03-17T08:00:42.546Z,11.87
2023-03-17T08:03:10.973Z,11.80
2023-03-17T08:05:38.010Z,11.60
2023-03-17T08:08:06.624Z,12.10
2023-03-17T08:10:33.845Z,12.23
2023-03-17T08:13:00.854Z,12.00
2023-03-17T08:15:27.552Z,12.40
2023-03-17T08:17:54.183Z,12.50
2023-03-17T08:20:21.749Z,12.25
2023-03-17T08:22:48.440Z,12.70
2023-03-17T08:25:15.264Z,13.27
2023-03-17T08:27:42.529Z,12.83
2023-03-17T08:30:09.978Z,12.57
2023-03-17T08:32:36.900Z,11.77
2023-03-17T08:35:06.307Z,12.07
2023-03-17T08:37:33.043Z,12.20
2023-03-17T08:40:00.988Z,12.00
2023-03-17T08:42:27.661Z,12.15
2023-03-17T08:44:54.394Z,11.50
2023-03-17T08:47:21.688Z,11.68
2023-03-17T08:49:48.512Z,11.60
2023-03-17T08:52:16.245Z,11.55
2023-03-17T08:54:43.198Z,11.68
2023-03-17T08:57:09.835Z,11.23
2023-03-17T08:59:36.528Z,11.88
2023-03-17T09:02:03.217Z,11.45
2023-03-17T09:04:30.060Z,11.35
2023-03-17T09:07:04.531Z,11.40
2023-03-17T09:09:33.501Z,11.47
2023-03-17T09:12:00.732Z,11.27
2023-03-17T09:14:27.605Z,11.13
2023-03-17T09:16:54.502Z,11.57
2023-03-17T09:19:21.656Z,11.40
2023-03-17T09:21:48.587Z,11.32
2023-03-17T09:24:15.237Z,12.10
2023-03-17T09:26:41.975Z,11.20
2023-03-17T09:29:08.790Z,11.30
2023-03-17T09:31:36.530Z,11.43
2023-03-17T09:34:05.197Z,11.77
2023-03-17T09:36:33.151Z,11.32
2023-03-17T09:39:00.928Z,11.80
2023-03-17T09:41:30.685Z,11.85
2023-03-17T09:44:19.501Z,11.30
2023-03-17T09:47:07.338Z,11.88
2023-03-17T09:49:57.381Z,11.23
2023-03-17T09:52:33.819Z,11.18
2023-03-17T09:55:03.258Z,11.45
2023-03-17T09:57:34.357Z,12.10
2023-03-17T10:00:07.300Z,11.52
2023-03-17T10:02:37.671Z,11.23
2023-03-17T10:05:22.475Z,10.77
2023-03-17T10:07:54.911Z,10.93
2023-03-17T10:10:43.091Z,11.35
2023-03-17T10:13:15.585Z,10.60
2023-03-17T10:16:05.799Z,11.10
2023-03-17T10:19:01.880Z,11.18
2023-03-17T10:21:41.471Z,11.40
2023-03-17T10:24:10.736Z,10.88
2023-03-17T10:26:42.780Z,11.30
2023-03-17T10:29:17.765Z,11.20
2023-03-17T10:31:44.918Z,11.65
2023-03-17T10:34:23.903Z,11.18
2023-03-17T10:36:55.425Z,11.55
2023-03-17T10:39:24.469Z,11.23
2023-03-17T10:42:07.386Z,11.27
2023-03-17T10:44:44.543Z,11.27
2023-03-17T10:47:30.269Z,11.80
2023-03-17T10:49:58.932Z,11.20
2023-03-17T10:52:28.736Z,11.18
2023-03-17T10:54:55.578Z,11.45
2023-03-17T10:57:22.920Z,11.68
2023-03-17T10:59:55.553Z,11.30
2023-03-17T11:02:31.545Z,11.10
2023-03-17T11:05:07.550Z,10.85
2023-03-17T11:07:38.619Z,11.13
2023-03-17T11:10:24.719Z,11.57
2023-03-17T11:13:02.057Z,11.82
2023-03-17T11:15:37.283Z,11.50
2023-03-17T11:18:19.564Z,11.70
2023-03-17T11:21:02.018Z,11.50
2023-03-17T11:23:50.115Z,11.80
2023-03-17T11:26:26.219Z,11.55
2023-03-17T11:29:19.700Z,11.40
2023-03-17T11:32:16.805Z,11.18
2023-03-17T11:35:21.318Z,11.13
2023-03-17T11:38:07.025Z,11.82
2023-03-17T11:40:48.986Z,11.50
2023-03-17T11:43:52.231Z,11.25
2023-03-17T11:46:29.311Z,11.80
2023-03-17T11:48:55.954Z,12.00
2023-03-17T11:51:54.802Z,11.65
2023-03-17T11:54:26.648Z,11.77
2023-03-17T11:56:57.855Z,11.98
2023-03-17T11:59:51.979Z,11.68
2023-03-17T12:02:43.483Z,11.77
2023-03-17T12:05:15.350Z,11.55
2023-03-17T12:08:03.209Z,11.60
2023-03-17T12:10:37.702Z,11.73
2023-03-17T12:13:23.051Z,11.55
2023-03-17T12:15:56.582Z,11.80
2023-03-17T12:18:32.649Z,11.70
2023-03-17T12:21:22.700Z,11.82
2023-03-17T12:24:01.849Z,11.05
2023-03-17T12:26:39.457Z,11.60
2023-03-17T12:29:18.023Z,11.80
2023-03-17T12:31:52.088Z,11.50
2023-03-17T12:34:25.781Z,11.25
2023-03-17T12:36:53.517Z,10.80
2023-03-17T12:39:33.551Z,11.50
2023-03-17T12:42:06.105Z,10.63
2023-03-17T12:44:53.378Z,10.88
2023-03-17T12:48:15.697Z,10.77
2023-03-17T12:51:06.286Z,10.88
2023-03-17T12:53:42.427Z,10.80
2023-03-17T12:56:17.230Z,11.38
2023-03-17T12:58:48.398Z,11.00
2023-03-17T13:01:34.739Z,11.15
2023-03-17T13:04:07.416Z,11.70
2023-03-17T13:06:42.537Z,11.05
2023-03-17T13:09:30.317Z,11.05
2023-03-17T13:11:59.333Z,11.25
2023-03-17T13:14:40.119Z,11.02
2023-03-17T13:17:19.791Z,11.13
2023-03-17T13:20:07.728Z,11.07
2023-03-17T13:22:40.861Z,11.00
2023-03-17T13:25:33.416Z,11.45
2023-03-17T13:28:27.483Z,11.20
2023-03-17T13:31:10.180Z,10.73
2023-03-17T13:33:49.073Z,11.60
2023-03-17T13:36:16.492Z,10.85
2023-03-17T13:39:19.830Z,11.23
2023-03-17T13:42:25.688Z,10.63
2023-03-17T13:45:10.769Z,10.85
2023-03-17T13:47:42.234Z,11.02
2023-03-17T13:50:21.328Z,10.98
2023-03-17T13:52:57.455Z,11.38
2023-03-17T13:55:24.147Z,11.30
2023-03-17T13:58:15.393Z,11.75
2023-03-17T14:00:49.336Z,11.90
2023-03-17T14:03:18.751Z,11.20
2023-03-17T14:05:51.447Z,15.50
2023-03-17T14:08:32.890Z,15.77
2023-03-17T14:11:08.856Z,11.45
2023-03-17T14:13:53.716Z,12.20
2023-03-17T14:16:26.734Z,12.40
2023-03-17T14:19:08.156Z,11.50
2023-03-17T14:21:34.839Z,11.98
2023-03-17T14:24:14.468Z,11.35
2023-03-17T14:26:41.173Z,11.32
2023-03-17T14:29:16.470Z,11.20
2023-03-17T14:31:48.015Z,11.50
2023-03-17T14:34:16.098Z,11.57
2023-03-17T14:36:43.281Z,11.55
2023-03-17T14:39:21.936Z,11.80
2023-03-17T14:41:59.153Z,11.80
2023-03-17T14:44:26.037Z,11.52
2023-03-17T14:47:01.793Z,11.77
2023-03-17T14:49:28.690Z,11.60
2023-03-17T14:51:57.206Z,11.32
2023-03-17T14:54:35.799Z,11.38
2023-03-17T14:57:07.682Z,11.45
2023-03-17T14:59:37.048Z,11.20
2023-03-17T15:02:33.006Z,11.63
2023-03-17T15:05:05.518Z,11.52
2023-03-17T15:07:37.781Z,11.52
2023-03-17T15:10:06.721Z,12.20
2023-03-17T15:12:33.581Z,12.10
2023-03-17T15:15:07.594Z,12.35
2023-03-17T15:17:36.605Z,12.20
2023-03-17T15:20:07.504Z,11.80
2023-03-17T15:22:46.780Z,11.95
2023-03-17T15:25:33.038Z,12.90
2023-03-17T15:28:00.408Z,11.88
2023-03-17T15:30:37.399Z,11.90
2023-03-17T15:33:33.830Z,11.13
2023-03-17T15:36:04.459Z,11.60
2023-03-17T15:38:31.584Z,11.73
2023-03-17T15:40:58.281Z,10.77
2023-03-17T15:43:25.331Z,11.38
2023-03-17T15:45:58.088Z,11.57
2023-03-17T15:48:31.386Z,12.10
2023-03-17T15:51:00.132Z,11.40
2023-03-17T15:53:27.812Z,11.88
2023-03-17T15:55:54.696Z,12.02
2023-03-17T15:58:21.562Z,11.77
2023-03-17T16:00:53.223Z,12.00
2023-03-17T16:03:27.884Z,11.93
2023-03-17T16:05:54.861Z,12.00
2023-03-17T16:08:22.323Z,12.02
2023-03-17T16:10:49.139Z,12.07
2023-03-17T16:13:16.021Z,11.80
2023-03-17T16:15:47.153Z,12.05
2023-03-17T16:18:18.141Z,12.38
2023-03-17T16:20:52.206Z,12.27
2023-03-17T16:23:24.746Z,12.10
2023-03-17T16:25:52.661Z,12.13
2023-03-17T16:28:31.382Z,12.52
2023-03-17T16:30:59.917Z,12.10
2023-03-17T16:33:39.542Z,11.32
2023-03-17T16:36:06.561Z,12.00
2023-03-17T16:38:33.918Z,11.70
2023-03-17T16:41:19.815Z,11.40
2023-03-17T16:43:51.086Z,11.57
2023-03-17T16:46:19.559Z,11.77
2023-03-17T16:48:46.370Z,12.05
2023-03-17T16:51:13.120Z,12.30
2023-03-17T16:53:39.781Z,12.20
2023-03-17T16:56:14.542Z,12.80
2023-03-17T16:58:41.748Z,12.70
2023-03-17T17:01:20.767Z,12.00
2023-03-17T17:03:47.808Z,12.07
2023-03-17T17:06:15.364Z,12.00
2023-03-17T17:08:43.731Z,11.80
2023-03-17T17:11:12.962Z,12.23
2023-03-17T17:13:44.676Z,11.98
2023-03-17T17:16:26.515Z,12.10
2023-03-17T17:18:53.484Z,11.77
2023-03-17T17:21:20.656Z,11.90
2023-03-17T17:23:47.400Z,11.80
2023-03-17T17:26:14.211Z,11.88
2023-03-17T17:28:41.059Z,12.07
2023-03-17T17:31:09.698Z,11.50
2023-03-17T17:33:37.680Z,11.77
2023-03-17T17:36:07.736Z,12.00
2023-03-17T17:38:34.511Z,11.80
2023-03-17T17:41:06.812Z,12.30
2023-03-17T17:43:33.593Z,11.90
2023-03-17T17:46:00.981Z,12.00
2023-03-17T17:48:28.151Z,12.15
2023-03-17T17:50:56.105Z,11.90
2023-03-17T17:53:22.742Z,11.75
2023-03-17T17:55:50.287Z,11.97
2023-03-17T17:58:19.623Z,11.95
2023-03-17T18:00:46.772Z,11.97
2023-03-17T18:03:13.598Z,12.30
2023-03-17T18:05:40.673Z,12.53
2023-03-17T18:08:07.325Z,11.77
2023-03-17T18:10:34.686Z,12.20
2023-03-17T18:13:01.880Z,11.68
2023-03-17T18:15:28.832Z,12.10
2023-03-17T18:17:56.011Z,11.63
2023-03-17T18:20:23.543Z,11.70
2023-03-17T18:22:51.264Z,11.70
2023-03-17T18:25:19.350Z,11.90
2023-03-17T18:27:47.263Z,11.90
2023-03-17T18:30:21.150Z,11.60
2023-03-17T18:32:49.759Z,11.50
2023-03-17T18:35:19.488Z,11.30
2023-03-17T18:37:46.673Z,11.57
2023-03-17T18:40:18.092Z,11.77
2023-03-17T18:42:46.010Z,11.83
2023-03-17T18:45:13.555Z,11.97
2023-03-17T18:47:41.923Z,11.60
2023-03-17T18:50:11.518Z,12.43
2023-03-17T18:52:41.024Z,11.83
2023-03-17T18:55:09.011Z,11.57
2023-03-17T18:57:35.844Z,11.70
2023-03-17T19:00:02.644Z,11.03
2023-03-17T19:02:29.827Z,11.13
2023-03-17T19:04:56.850Z,11.17
2023-03-17T19:07:23.566Z,11.30
2023-03-17T19:09:50.960Z,11.60
2023-03-17T19:12:18.538Z,12.20
2023-03-17T19:14:45.500Z,11.40
2023-03-17T19:17:12.224Z,11.50
2023-03-17T19:19:40.548Z,11.10
2023-03-17T19:22:07.669Z,11.30
2023-03-17T19:24:36.072Z,11.70
2023-03-17T19:27:02.760Z,11.63
2023-03-17T19:29:29.487Z,11.50
2023-03-17T19:31:56.182Z,11.60
2023-03-17T19:34:23.285Z,12.80
2023-03-17T19:36:50.574Z,21.13
2023-03-17T19:39:17.847Z,20.43
2023-03-17T19:41:44.591Z,17.50
2023-03-17T19:44:11.309Z,19.00
2023-03-17T19:46:38.511Z,20.80
2023-03-17T19:49:05.370Z,23.90
2023-03-17T19:51:33.119Z,21.77
2023-03-17T19:54:00.178Z,17.80
2023-03-17T19:56:27.828Z,22.73
2023-03-17T19:58:55.447Z,23.17
2023-03-17T20:01:22.829Z,15.53
2023-03-17T20:03:49.789Z,14.40
2023-03-17T20:06:16.872Z,12.50
2023-03-17T20:08:43.963Z,11.60
2023-03-17T20:11:13.161Z,11.77
2023-03-17T20:13:40.204Z,12.30
2023-03-17T20:16:08.016Z,11.70
2023-03-17T20:18:35.218Z,11.73
2023-03-17T20:21:05.546Z,11.60
2023-03-17T20:23:33.469Z,11.07
2023-03-17T20:26:01.418Z,11.20
2023-03-17T20:28:29.967Z,11.30
2023-03-17T20:31:00.576Z,11.63
2023-03-17T20:33:27.751Z,11.20
2023-03-17T20:35:54.556Z,10.90
2023-03-17T20:38:21.346Z,11.27
2023-03-17T20:40:48.209Z,11.30
2023-03-17T20:43:14.970Z,11.67
2023-03-17T20:45:41.693Z,11.40
2023-03-17T20:48:10.662Z,11.70
2023-03-17T20:50:38.969Z,11.47
2023-03-17T20:53:05.768Z,12.37
2023-03-17T20:55:32.505Z,12.80
2023-03-17T20:57:59.751Z,12.93
2023-03-17T21:00:26.970Z,12.00
2023-03-17T21:02:53.723Z,11.17
2023-03-17T21:05:24.469Z,11.70
2023-03-17T21:07:51.454Z,13.10
2023-03-17T21:10:19.159Z,12.40
2023-03-17T21:12:46.480Z,15.30
2023-03-17T21:15:14.100Z,13.33
2023-03-17T21:17:42.344Z,11.00
2023-03-17T21:20:11.467Z,10.87
2023-03-17T21:22:39.872Z,11.60
2023-03-17T21:25:08.736Z,11.27
2023-03-17T21:27:37.732Z,11.53
2023-03-17T21:30:08.835Z,11.70
2023-03-17T21:32:36.139Z,11.00
2023-03-17T21:35:03.438Z,10.87
2023-03-17T21:37:30.315Z,11.63
2023-03-17T21:39:57.265Z,11.70
2023-03-17T21:42:27.760Z,11.80
2023-03-17T21:44:55.921Z,11.43
2023-03-17T21:47:22.602Z,11.27
2023-03-17T21:49:49.762Z,11.73
2023-03-17T21:52:16.539Z,11.47
2023-03-17T21:54:43.259Z,11.90
2023-03-17T21:57:11.760Z,11.40
2023-03-17T21:59:38.706Z,11.40
2023-03-17T22:02:05.943Z,10.70
2023-03-17T22:04:32.736Z,10.50
2023-03-17T22:06:59.463Z,11.47
2023-03-17T22:09:26.584Z,11.67
2023-03-17T22:11:53.344Z,11.53
2023-03-17T22:14:20.709Z,11.40
2023-03-17T22:16:48.959Z,11.40
2023-03-17T22:19:16.237Z,11.33
2023-03-17T22:21:43.962Z,11.73
2023-03-17T22:24:11.147Z,11.90
2023-03-17T22:26:37.955Z,11.43
2023-03-17T22:29:05.028Z,11.60
2023-03-17T22:31:31.798Z,11.20
2023-03-17T22:33:59.536Z,11.60
2023-03-17T22:36:27.325Z,11.23
2023-03-17T22:38:54.419Z,11.43
2023-03-17T22:41:23.783Z,11.03
2023-03-17T22:43:50.741Z,11.40
2023-03-17T22:46:17.961Z,11.07
2023-03-17T22:48:46.172Z,10.73
2023-03-17T22:51:17.513Z,12.00
2023-03-17T22:53:44.691Z,11.40
2023-03-17T22:56:12.912Z,10.97
2023-03-17T22:58:41.574Z,10.90
2023-03-17T23:01:09.734Z,10.57
2023-03-17T23:03:36.534Z,10.90
2023-03-17T23:06:04.822Z,11.00
2023-03-17T23:08:35.119Z,10.77
2023-03-17T23:11:07.068Z,11.23
2023-03-17T23:13:35.117Z,10.73
2023-03-17T23:16:01.866Z,10.77
2023-03-17T23:18:28.803Z,10.53
2023-03-17T23:20:55.490Z,10.50
2023-03-17T23:23:22.224Z,10.40
2023-03-17T23:25:49.049Z,10.50
2023-03-17T23:28:16.023Z,10.77
2023-03-17T23:30:43.815Z,10.20
2023-03-17T23:33:10.663Z,10.47
2023-03-17T23:35:38.045Z,10.83
2023-03-17T23:38:04.968Z,9.90
2023-03-17T23:40:32.003Z,9.87
2023-03-17T23:42:58.932Z,10.37
2023-03-17T23:45:25.879Z,10.47
2023-03-17T23:47:54.311Z,10.47
2023-03-17T23:50:21.165Z,10.70
2023-03-17T23:52:49.297Z,10.33
2023-03-17T23:55:18.677Z,10.33
2023-03-17T23:57:45.694Z,10.00
